createdAt,value
2023-03-10T00:01:21.301Z,93.40
2023-03-10T00:03:48.351Z,93.40
2023-03-10T00:06:16.116Z,93.30
2023-03-10T00:08:43.004Z,93.70
2023-03-10T00:11:09.746Z,93.40
2023-03-10T00:13:36.631Z,93.40
2023-03-10T00:16:03.404Z,93.40
2023-03-10T00:18:30.109Z,93.40
2023-03-10T00:20:56.909Z,93.40
2023-03-10T00:23:23.650Z,93.40
2023-03-10T00:26:00.968Z,93.40
2023-03-10T00:28:27.740Z,93.40
2023-03-10T00:31:01.422Z,93.40
2023-03-10T00:33:31.084Z,93.40
2023-03-10T00:36:03.908Z,93.40
2023-03-10T00:38:30.739Z,93.80
2023-03-10T00:41:00.087Z,93.40
2023-03-10T00:43:28.009Z,93.50
2023-03-10T00:45:54.771Z,93.50
2023-03-10T00:48:21.976Z,93.50
2023-03-10T00:50:49.023Z,93.50
2023-03-10T00:53:15.930Z,93.60
2023-03-10T00:55:42.692Z,93.50
2023-03-10T00:58:09.512Z,93.50
2023-03-10T01:00:36.581Z,93.50
2023-03-10T01:03:03.339Z,93.50
2023-03-10T01:05:30.215Z,93.40
2023-03-10T01:07:56.981Z,93.40
2023-03-10T01:10:24.884Z,93.40
2023-03-10T01:12:51.566Z,93.30
2023-03-10T01:15:18.236Z,93.20
2023-03-10T01:17:45.722Z,93.20
2023-03-10T01:20:16.873Z,93.10
2023-03-10T01:22:43.812Z,93.10
2023-03-10T01:25:14.636Z,93.10
2023-03-10T01:27:41.855Z,93.10
2023-03-10T01:30:10.578Z,93.10
2023-03-10T01:32:38.604Z,93.10
2023-03-10T01:35:05.594Z,92.90
2023-03-10T01:37:32.670Z,92.90
2023-03-10T01:39:59.867Z,93.00
2023-03-10T01:42:26.732Z,93.10
2023-03-10T01:45:05.660Z,93.10
2023-03-10T01:47:32.398Z,93.20
2023-03-10T01:49:59.453Z,93.30
2023-03-10T01:52:29.070Z,93.30
2023-03-10T01:55:02.648Z,93.30
2023-03-10T01:57:44.092Z,93.30
2023-03-10T02:00:12.447Z,93.40
2023-03-10T02:02:50.015Z,93.30
2023-03-10T02:05:16.913Z,93.30
2023-03-10T02:07:43.760Z,93.30
2023-03-10T02:10:14.120Z,93.40
2023-03-10T02:12:41.101Z,93.50
2023-03-10T02:15:10.210Z,93.50
2023-03-10T02:17:37.701Z,93.40
2023-03-10T02:20:05.250Z,93.40
2023-03-10T02:22:32.730Z,93.40
2023-03-10T02:25:18.283Z,93.40
2023-03-10T02:27:45.539Z,93.40
2023-03-10T02:30:21.387Z,93.30
2023-03-10T02:32:50.521Z,93.20
2023-03-10T02:35:17.649Z,93.10
2023-03-10T02:37:53.704Z,93.20
2023-03-10T02:40:40.757Z,93.20
2023-03-10T02:43:18.006Z,93.30
2023-03-10T02:45:46.994Z,93.40
2023-03-10T02:48:15.784Z,93.40
2023-03-10T02:50:47.330Z,93.40
2023-03-10T02:53:17.048Z,93.40
2023-03-10T02:55:44.474Z,93.40
2023-03-10T02:58:12.417Z,93.50
2023-03-10T03:00:44.134Z,93.60
2023-03-10T03:03:13.242Z,93.60
2023-03-10T03:05:40.745Z,93.60
2023-03-10T03:08:11.028Z,93.60
2023-03-10T03:10:38.470Z,93.60
2023-03-10T03:13:06.608Z,93.60
2023-03-10T03:15:33.595Z,93.60
2023-03-10T03:18:00.926Z,93.70
2023-03-10T03:20:29.467Z,93.70
2023-03-10T03:22:56.263Z,93.70
2023-03-10T03:25:24.350Z,93.70
2023-03-10T03:27:51.761Z,93.70
2023-03-10T03:30:22.184Z,93.70
2023-03-10T03:32:49.193Z,93.70
2023-03-10T03:35:22.358Z,93.70
2023-03-10T03:37:49.295Z,93.70
2023-03-10T03:40:16.057Z,93.70
2023-03-10T03:42:47.102Z,93.70
2023-03-10T03:45:15.187Z,93.70
2023-03-10T03:47:42.715Z,93.70
2023-03-10T03:50:11.048Z,93.60
2023-03-10T03:52:38.062Z,93.70
2023-03-10T03:55:05.352Z,93.60
2023-03-10T03:57:32.231Z,93.70
2023-03-10T03:59:59.924Z,93.70
2023-03-10T04:02:28.738Z,93.70
2023-03-10T04:04:55.900Z,93.70
2023-03-10T04:07:23.210Z,93.70
2023-03-10T04:09:49.991Z,93.70
2023-03-10T04:12:16.943Z,93.70
2023-03-10T04:14:46.720Z,93.70
2023-03-10T04:17:13.485Z,93.70
2023-03-10T04:19:40.216Z,93.70
2023-03-10T04:22:10.277Z,93.70
2023-03-10T04:24:38.479Z,93.70
2023-03-10T04:27:05.912Z,93.60
2023-03-10T04:29:32.990Z,93.60
2023-03-10T04:32:05.712Z,93.70
2023-03-10T04:34:37.208Z,93.70
2023-03-10T04:37:04.108Z,93.70
2023-03-10T04:39:31.656Z,94.10
2023-03-10T04:41:58.852Z,93.70
2023-03-10T04:44:30.779Z,93.70
2023-03-10T04:46:59.651Z,93.70
2023-03-10T04:49:26.943Z,93.70
2023-03-10T04:51:55.149Z,93.70
2023-03-10T04:54:24.323Z,93.80
2023-03-10T04:56:51.289Z,93.70
2023-03-10T04:59:20.076Z,93.70
2023-03-10T05:01:49.401Z,93.70
2023-03-10T05:04:16.246Z,93.60
2023-03-10T05:06:43.198Z,93.60
2023-03-10T05:09:22.721Z,93.60
2023-03-10T05:11:49.798Z,93.60
2023-03-10T05:14:18.546Z,93.50
2023-03-10T05:16:47.353Z,93.60
2023-03-10T05:19:14.149Z,93.50
2023-03-10T05:21:41.016Z,93.50
2023-03-10T05:24:07.947Z,93.50
2023-03-10T05:26:35.257Z,93.50
2023-03-10T05:29:03.620Z,93.50
2023-03-10T05:31:38.850Z,93.50
2023-03-10T05:34:11.729Z,93.50
2023-03-10T05:36:42.154Z,93.50
2023-03-10T05:39:09.553Z,93.50
2023-03-10T05:41:40.975Z,93.50
2023-03-10T05:44:08.656Z,93.50
2023-03-10T05:46:36.435Z,93.60
2023-03-10T05:49:03.294Z,93.50
2023-03-10T05:51:30.734Z,93.50
2023-03-10T05:54:00.565Z,93.50
2023-03-10T05:56:29.290Z,93.50
2023-03-10T05:58:59.979Z,93.50
2023-03-10T06:01:33.070Z,93.50
2023-03-10T06:04:00.084Z,93.60
2023-03-10T06:06:26.825Z,93.60
2023-03-10T06:08:54.017Z,93.60
2023-03-10T06:11:20.785Z,93.60
2023-03-10T06:13:47.520Z,93.60
2023-03-10T06:16:14.290Z,93.60
2023-03-10T06:18:41.080Z,93.60
2023-03-10T06:21:09.021Z,93.60
2023-03-10T06:23:36.441Z,93.60
2023-03-10T06:26:06.772Z,93.60
2023-03-10T06:28:35.564Z,93.60
2023-03-10T06:31:04.225Z,93.60
2023-03-10T06:33:31.693Z,93.60
2023-03-10T06:35:58.477Z,93.60
2023-03-10T06:38:25.694Z,93.60
2023-03-10T06:40:52.461Z,93.60
2023-03-10T06:43:19.666Z,93.60
2023-03-10T06:45:47.479Z,93.50
2023-03-10T06:48:14.898Z,93.50
2023-03-10T06:50:48.281Z,93.50
2023-03-10T06:53:16.203Z,93.50
2023-03-10T06:55:42.968Z,93.50
2023-03-10T06:58:10.184Z,93.60
2023-03-10T07:00:39.004Z,93.50
2023-03-10T07:03:07.958Z,93.60
2023-03-10T07:05:34.637Z,93.50
2023-03-10T07:08:01.622Z,93.50
2023-03-10T07:10:28.309Z,93.60
2023-03-10T07:12:58.773Z,93.60
2023-03-10T07:15:26.383Z,93.60
2023-03-10T07:17:56.094Z,93.60
2023-03-10T07:20:24.284Z,93.60
2023-03-10T07:22:51.344Z,93.60
2023-03-10T07:25:18.562Z,93.60
2023-03-10T07:27:45.330Z,93.60
2023-03-10T07:30:12.133Z,93.70
2023-03-10T07:32:39.109Z,93.70
2023-03-10T07:35:06.346Z,93.70
2023-03-10T07:37:33.146Z,93.70
2023-03-10T07:39:59.990Z,93.60
2023-03-10T07:42:26.614Z,93.70
2023-03-10T07:44:53.401Z,93.70
2023-03-10T07:47:20.191Z,93.60
2023-03-10T07:49:47.204Z,93.60
2023-03-10T07:52:15.083Z,93.60
2023-03-10T07:54:42.066Z,93.60
2023-03-10T07:57:08.814Z,93.70
2023-03-10T07:59:36.328Z,93.60
2023-03-10T08:02:03.060Z,93.70
2023-03-10T08:04:29.912Z,93.70
2023-03-10T08:06:56.723Z,93.70
2023-03-10T08:09:23.624Z,93.70
2023-03-10T08:11:50.291Z,93.90
2023-03-10T08:14:20.908Z,93.60
2023-03-10T08:16:47.840Z,93.70
2023-03-10T08:19:14.695Z,93.70
2023-03-10T08:21:45.158Z,93.70
2023-03-10T08:24:11.945Z,93.70
2023-03-10T08:26:38.818Z,93.70
2023-03-10T08:29:05.727Z,93.70
2023-03-10T08:31:32.619Z,93.80
2023-03-10T08:33:59.400Z,93.80
2023-03-10T08:36:28.289Z,93.90
2023-03-10T08:38:55.478Z,93.90
2023-03-10T08:41:26.439Z,93.80
2023-03-10T08:43:55.218Z,93.90
2023-03-10T08:46:23.084Z,93.90
2023-03-10T08:48:50.268Z,93.90
2023-03-10T08:51:17.438Z,93.90
2023-03-10T08:53:49.441Z,94.00
2023-03-10T08:56:20.750Z,94.00
2023-03-10T08:58:47.625Z,93.90
2023-03-10T09:01:15.943Z,93.90
2023-03-10T09:03:44.299Z,94.00
2023-03-10T09:06:11.629Z,94.00
2023-03-10T09:08:39.825Z,94.00
2023-03-10T09:11:10.608Z,94.00
2023-03-10T09:13:38.109Z,94.00
2023-03-10T09:16:05.352Z,94.00
2023-03-10T09:18:32.725Z,94.10
2023-03-10T09:20:59.614Z,94.10
2023-03-10T09:23:26.788Z,94.10
2023-03-10T09:25:54.025Z,94.20
2023-03-10T09:28:21.793Z,94.20
2023-03-10T09:30:50.928Z,94.30
2023-03-10T09:33:18.981Z,94.30
2023-03-10T09:35:52.674Z,94.30
2023-03-10T09:38:29.638Z,94.40
2023-03-10T09:41:03.177Z,94.40
2023-03-10T09:43:32.473Z,94.40
2023-03-10T09:46:05.234Z,94.40
2023-03-10T09:48:47.183Z,94.40
2023-03-10T09:51:24.577Z,94.50
2023-03-10T09:53:51.618Z,94.60
2023-03-10T09:56:36.710Z,94.60
2023-03-10T09:59:11.270Z,94.70
2023-03-10T10:01:40.360Z,94.70
2023-03-10T10:04:10.809Z,94.70
2023-03-10T10:06:39.259Z,94.70
2023-03-10T10:09:11.773Z,94.70
2023-03-10T10:11:39.667Z,94.60
2023-03-10T10:14:22.227Z,94.60
2023-03-10T10:17:12.084Z,94.70
2023-03-10T10:19:40.524Z,95.10
2023-03-10T10:22:16.668Z,94.80
2023-03-10T10:25:02.227Z,94.80
2023-03-10T10:27:30.860Z,94.80
2023-03-10T10:29:58.717Z,94.80
2023-03-10T10:32:25.597Z,94.80
2023-03-10T10:35:11.928Z,94.80
2023-03-10T10:37:43.031Z,94.90
2023-03-10T10:40:22.840Z,94.80
2023-03-10T10:42:53.980Z,94.80
2023-03-10T10:45:39.888Z,95.20
2023-03-10T10:48:06.911Z,94.70
2023-03-10T10:50:34.901Z,94.70
2023-03-10T10:53:16.665Z,94.70
2023-03-10T10:55:44.685Z,94.70
2023-03-10T10:58:28.605Z,94.80
2023-03-10T11:00:58.498Z,94.80
2023-03-10T11:03:36.870Z,94.80
2023-03-10T11:06:24.473Z,94.70
2023-03-10T11:08:52.177Z,94.70
2023-03-10T11:11:19.123Z,94.70
2023-03-10T11:13:55.854Z,94.60
2023-03-10T11:16:22.528Z,94.60
2023-03-10T11:18:52.637Z,94.70
2023-03-10T11:21:23.369Z,94.70
2023-03-10T11:23:56.409Z,94.90
2023-03-10T11:26:37.496Z,95.30
2023-03-10T11:29:18.827Z,94.90
2023-03-10T11:32:09.074Z,94.90
2023-03-10T11:34:39.174Z,94.90
2023-03-10T11:37:06.144Z,94.80
2023-03-10T11:39:43.797Z,94.90
2023-03-10T11:42:16.798Z,94.90
2023-03-10T11:44:50.670Z,95.10
2023-03-10T11:47:17.448Z,95.20
2023-03-10T11:49:47.319Z,95.30
2023-03-10T11:52:17.197Z,95.30
2023-03-10T11:54:51.056Z,95.70
2023-03-10T11:57:19.845Z,95.30
2023-03-10T11:59:55.424Z,95.30
2023-03-10T12:02:29.572Z,95.30
2023-03-10T12:04:59.330Z,95.30
2023-03-10T12:07:31.870Z,95.40
2023-03-10T12:10:14.161Z,95.40
2023-03-10T12:12:44.915Z,95.40
2023-03-10T12:15:11.747Z,95.40
2023-03-10T12:17:39.053Z,95.40
2023-03-10T12:20:15.879Z,95.40
2023-03-10T12:22:47.730Z,95.30
2023-03-10T12:25:30.286Z,95.30
2023-03-10T12:28:15.771Z,95.30
2023-03-10T12:30:51.802Z,95.30
2023-03-10T12:33:30.776Z,95.20
2023-03-10T12:36:03.220Z,95.20
2023-03-10T12:38:31.774Z,95.30
2023-03-10T12:40:59.444Z,95.40
2023-03-10T12:43:38.806Z,95.40
2023-03-10T12:46:11.059Z,95.50
2023-03-10T12:48:40.690Z,95.50
2023-03-10T12:51:18.494Z,95.50
2023-03-10T12:53:59.627Z,95.50
2023-03-10T12:56:40.125Z,95.50
2023-03-10T12:59:13.203Z,95.50
2023-03-10T13:01:55.102Z,95.60
2023-03-10T13:04:23.489Z,95.50
2023-03-10T13:06:55.178Z,95.30
2023-03-10T13:09:29.557Z,95.10
2023-03-10T13:12:05.383Z,94.90
2023-03-10T13:14:39.909Z,94.80
2023-03-10T13:17:09.536Z,94.70
2023-03-10T13:19:38.296Z,94.70
2023-03-10T13:22:06.458Z,94.60
2023-03-10T13:24:37.752Z,94.60
2023-03-10T13:27:13.037Z,94.60
2023-03-10T13:29:41.116Z,94.50
2023-03-10T13:32:17.781Z,94.50
2023-03-10T13:34:45.721Z,94.60
2023-03-10T13:37:12.838Z,94.50
2023-03-10T13:39:40.039Z,94.40
2023-03-10T13:42:40.751Z,94.30
2023-03-10T13:45:15.102Z,94.30
2023-03-10T13:47:42.644Z,94.20
2023-03-10T13:50:14.528Z,94.20
2023-03-10T13:52:51.265Z,94.10
2023-03-10T13:55:17.982Z,94.00
2023-03-10T13:57:46.001Z,93.90
2023-03-10T14:00:16.964Z,93.90
2023-03-10T14:02:45.312Z,93.90
2023-03-10T14:05:31.005Z,93.90
2023-03-10T14:07:58.816Z,93.80
2023-03-10T14:10:25.981Z,93.80
2023-03-10T14:12:53.466Z,93.80
2023-03-10T14:15:20.239Z,93.80
2023-03-10T14:17:48.262Z,93.80
2023-03-10T14:20:28.765Z,93.80
2023-03-10T14:22:55.834Z,93.90
2023-03-10T14:25:23.506Z,93.90
2023-03-10T14:27:57.696Z,93.90
2023-03-10T14:30:29.520Z,93.80
2023-03-10T14:32:56.921Z,93.80
2023-03-10T14:35:24.119Z,93.80
2023-03-10T14:37:51.966Z,93.80
2023-03-10T14:40:19.370Z,93.80
2023-03-10T14:42:47.799Z,93.80
2023-03-10T14:45:34.104Z,93.80
2023-03-10T14:48:07.380Z,93.80
2023-03-10T14:50:34.305Z,93.70
2023-03-10T14:53:01.168Z,93.70
2023-03-10T14:55:28.761Z,93.60
2023-03-10T14:57:58.590Z,93.60
2023-03-10T15:00:25.834Z,93.60
2023-03-10T15:02:52.568Z,93.50
2023-03-10T15:05:20.913Z,93.50
2023-03-10T15:07:48.995Z,93.60
2023-03-10T15:10:16.923Z,93.50
2023-03-10T15:12:43.989Z,93.50
2023-03-10T15:15:15.606Z,93.50
2023-03-10T15:17:42.494Z,93.50
2023-03-10T15:20:18.789Z,93.50
2023-03-10T15:22:46.071Z,93.50
2023-03-10T15:25:13.704Z,93.60
2023-03-10T15:27:40.643Z,93.60
2023-03-10T15:30:08.285Z,93.60
2023-03-10T15:32:35.256Z,93.50
2023-03-10T15:35:01.925Z,93.50
2023-03-10T15:37:28.764Z,93.40
2023-03-10T15:39:55.456Z,93.40
2023-03-10T15:42:22.408Z,93.40
2023-03-10T15:44:49.430Z,93.30
2023-03-10T15:47:16.248Z,93.40
2023-03-10T15:49:43.024Z,93.40
2023-03-10T15:52:10.041Z,93.30
2023-03-10T15:54:36.751Z,93.20
2023-03-10T15:57:03.648Z,93.10
2023-03-10T15:59:30.716Z,93.10
2023-03-10T16:01:57.747Z,92.90
2023-03-10T16:04:24.541Z,92.80
2023-03-10T16:06:51.499Z,92.80
2023-03-10T16:09:18.276Z,92.90
2023-03-10T16:11:45.017Z,92.90
2023-03-10T16:14:11.997Z,92.90
2023-03-10T16:16:38.977Z,92.90
2023-03-10T16:19:08.145Z,92.80
2023-03-10T16:21:35.306Z,92.80
2023-03-10T16:24:02.255Z,92.80
2023-03-10T16:26:29.316Z,92.80
2023-03-10T16:28:56.254Z,92.90
2023-03-10T16:31:26.925Z,92.90
2023-03-10T16:33:54.299Z,92.90
2023-03-10T16:36:22.463Z,93.00
2023-03-10T16:38:49.781Z,92.90
2023-03-10T16:41:17.384Z,92.80
2023-03-10T16:43:44.457Z,92.80
2023-03-10T16:46:12.684Z,92.80
2023-03-10T16:48:42.149Z,92.80
2023-03-10T16:51:23.349Z,92.80
2023-03-10T16:53:51.068Z,92.70
2023-03-10T16:56:18.259Z,92.80
2023-03-10T16:58:47.311Z,92.90
2023-03-10T17:01:14.376Z,92.80
2023-03-10T17:03:41.621Z,92.90
2023-03-10T17:06:13.224Z,92.90
2023-03-10T17:08:40.731Z,92.90
2023-03-10T17:11:08.600Z,92.80
2023-03-10T17:13:36.943Z,92.80
2023-03-10T17:16:12.275Z,92.70
2023-03-10T17:18:39.079Z,92.90
2023-03-10T17:21:12.008Z,93.60
2023-03-10T17:23:38.799Z,94.00
2023-03-10T17:26:07.215Z,94.90
2023-03-10T17:28:33.992Z,95.80
2023-03-10T17:31:04.460Z,96.50
2023-03-10T17:33:33.176Z,96.60
2023-03-10T17:36:03.191Z,96.30
2023-03-10T17:38:29.863Z,96.60
2023-03-10T17:40:56.575Z,96.90
2023-03-10T17:43:33.775Z,96.70
2023-03-10T17:46:02.059Z,96.80
2023-03-10T17:48:29.165Z,96.30
2023-03-10T17:50:56.838Z,96.40
2023-03-10T17:53:24.470Z,96.70
2023-03-10T17:55:51.657Z,96.80
2023-03-10T17:58:18.622Z,96.90
2023-03-10T18:00:45.503Z,96.30
2023-03-10T18:03:12.345Z,96.10
2023-03-10T18:05:40.376Z,96.20
2023-03-10T18:08:07.386Z,96.70
2023-03-10T18:10:35.357Z,96.40
2023-03-10T18:13:03.040Z,96.60
2023-03-10T18:15:29.964Z,96.70
2023-03-10T18:17:56.794Z,96.70
2023-03-10T18:20:24.609Z,96.80
2023-03-10T18:22:51.762Z,96.80
2023-03-10T18:25:19.152Z,97.20
2023-03-10T18:27:46.097Z,96.90
2023-03-10T18:30:13.403Z,97.10
2023-03-10T18:32:40.353Z,97.40
2023-03-10T18:35:07.736Z,97.50
2023-03-10T18:37:34.409Z,97.50
2023-03-10T18:40:01.114Z,97.50
2023-03-10T18:42:28.110Z,97.60
2023-03-10T18:44:55.576Z,97.70
2023-03-10T18:47:22.389Z,97.70
2023-03-10T18:49:49.249Z,97.70
2023-03-10T18:52:16.231Z,97.80
2023-03-10T18:54:43.389Z,97.70
2023-03-10T18:57:10.121Z,97.70
2023-03-10T18:59:36.830Z,97.70
2023-03-10T19:02:03.669Z,97.70
2023-03-10T19:04:30.729Z,97.80
2023-03-10T19:06:57.493Z,97.80
2023-03-10T19:09:24.501Z,97.80
2023-03-10T19:11:53.274Z,98.10
2023-03-10T19:14:20.082Z,97.70
2023-03-10T19:16:50.025Z,97.70
2023-03-10T19:19:17.354Z,97.70
2023-03-10T19:21:44.333Z,97.90
2023-03-10T19:24:11.165Z,98.10
2023-03-10T19:26:38.609Z,98.10
2023-03-10T19:29:06.657Z,98.10
2023-03-10T19:31:33.671Z,98.20
2023-03-10T19:34:00.740Z,98.20
2023-03-10T19:36:29.457Z,98.10
2023-03-10T19:38:56.278Z,98.00
2023-03-10T19:41:23.943Z,98.10
2023-03-10T19:43:51.363Z,98.00
2023-03-10T19:46:18.481Z,98.00
2023-03-10T19:48:45.560Z,97.90
2023-03-10T19:51:18.961Z,98.00
2023-03-10T19:53:45.713Z,97.80
2023-03-10T19:56:15.646Z,97.80
2023-03-10T19:58:42.883Z,97.70
2023-03-10T20:01:15.616Z,97.60
2023-03-10T20:03:44.110Z,97.70
2023-03-10T20:06:10.963Z,97.60
2023-03-10T20:08:38.168Z,97.60
2023-03-10T20:11:05.560Z,97.70
2023-03-10T20:13:33.424Z,97.80
2023-03-10T20:16:00.196Z,97.80
2023-03-10T20:18:27.252Z,97.90
2023-03-10T20:20:54.171Z,97.90
2023-03-10T20:23:20.949Z,97.90
2023-03-10T20:25:48.382Z,98.00
2023-03-10T20:28:15.598Z,98.10
2023-03-10T20:30:42.932Z,98.10
2023-03-10T20:33:09.729Z,98.10
2023-03-10T20:35:38.266Z,98.10
2023-03-10T20:38:05.418Z,98.20
2023-03-10T20:40:32.298Z,98.20
2023-03-10T20:43:02.122Z,98.30
2023-03-10T20:45:29.214Z,98.40
2023-03-10T20:47:56.244Z,98.50
2023-03-10T20:50:23.263Z,98.60
2023-03-10T20:52:50.040Z,98.60
2023-03-10T20:55:20.242Z,98.70
2023-03-10T20:57:47.922Z,98.80
2023-03-10T21:00:17.466Z,98.80
2023-03-10T21:02:48.329Z,98.90
2023-03-10T21:05:15.662Z,99.00
2023-03-10T21:07:42.509Z,99.00
2023-03-10T21:10:11.659Z,98.90
2023-03-10T21:12:39.732Z,98.90
2023-03-10T21:15:07.776Z,98.80
2023-03-10T21:17:53.172Z,98.90
2023-03-10T21:20:21.426Z,98.90
2023-03-10T21:22:48.838Z,99.10
2023-03-10T21:25:17.683Z,99.00
2023-03-10T21:27:49.754Z,99.10
2023-03-10T21:30:17.362Z,99.10
2023-03-10T21:32:44.402Z,99.00
2023-03-10T21:35:15.976Z,99.10
2023-03-10T21:37:47.390Z,99.10
2023-03-10T21:40:17.870Z,98.90
2023-03-10T21:42:44.892Z,99.00
2023-03-10T21:45:13.062Z,99.10
2023-03-10T21:47:40.079Z,99.10
2023-03-10T21:50:07.068Z,99.10
2023-03-10T21:52:34.144Z,99.10
2023-03-10T21:55:01.203Z,99.00
2023-03-10T21:57:28.023Z,99.10
2023-03-10T21:59:54.814Z,99.00
2023-03-10T22:02:25.883Z,99.00
2023-03-10T22:04:52.674Z,98.90
2023-03-10T22:07:19.827Z,98.90
2023-03-10T22:09:46.712Z,99.30
2023-03-10T22:12:13.433Z,99.00
2023-03-10T22:14:40.581Z,99.00
2023-03-10T22:17:07.361Z,99.10
2023-03-10T22:19:34.019Z,99.10
2023-03-10T22:22:00.911Z,99.10
2023-03-10T22:24:27.839Z,99.00
2023-03-10T22:26:54.506Z,99.00
2023-03-10T22:29:21.540Z,99.00
2023-03-10T22:31:50.733Z,99.00
2023-03-10T22:34:17.702Z,99.00
2023-03-10T22:36:44.875Z,99.00
2023-03-10T22:39:11.681Z,99.00
2023-03-10T22:41:38.899Z,99.00
2023-03-10T22:44:05.945Z,99.10
2023-03-10T22:46:32.669Z,99.10
2023-03-10T22:49:00.539Z,99.10
2023-03-10T22:51:27.356Z,99.10
2023-03-10T22:53:54.159Z,99.00
2023-03-10T22:56:21.100Z,99.00
2023-03-10T22:58:47.822Z,99.00
2023-03-10T23:01:14.610Z,99.00
2023-03-10T23:03:41.634Z,99.10
2023-03-10T23:06:08.539Z,99.20
2023-03-10T23:08:37.392Z,99.10
2023-03-10T23:11:08.284Z,99.00
2023-03-10T23:13:35.103Z,99.00
2023-03-10T23:16:01.897Z,98.90
2023-03-10T23:18:28.607Z,99.00
2023-03-10T23:20:55.533Z,99.30
2023-03-10T23:23:22.415Z,99.00
2023-03-10T23:25:50.982Z,99.00
2023-03-10T23:28:18.430Z,99.00
2023-03-10T23:30:46.703Z,99.00
2023-03-10T23:33:14.755Z,99.00
2023-03-10T23:35:41.460Z,99.00
2023-03-10T23:38:08.568Z,99.00
2023-03-10T23:40:36.104Z,99.10
2023-03-10T23:43:04.329Z,99.00
2023-03-10T23:45:31.746Z,99.10
2023-03-10T23:47:59.434Z,99.00
2023-03-10T23:50:28.506Z,99.00
2023-03-10T23:52:55.446Z,99.00
2023-03-10T23:55:24.173Z,99.00
2023-03-10T23:57:51.222Z,99.00
